Time;durP1;ratioP1;P1;durP2;ratioP2;P2;SDS_P1;SDS_P2;PMS_P1;PMS_P2;Temp;Humidity;BMP_temperature;BMP_pressure;BME280_temperature;BME280_humidity;BME280_pressure;Samples;Min_cycle;Max_cycle;Signal;HPM_P1;HPM_P2
2021/08/17 00:02:03;;;;;;;;;;;;;;;27.09;37.90;100572.75;5079272;28;962;-41
2021/08/17 00:04:29;;;;;;;;;;;;;;;26.96;37.75;100571.47;5078619;28;843;-41
2021/08/17 00:06:54;;;;;;;;;;;;;;;26.96;38.02;100566.09;5078436;28;814;-41
2021/08/17 00:09:19;;;;;;;;;;;;;;;27.07;37.82;100566.69;5079145;28;834;-41
2021/08/17 00:11:45;;;;;;;;;;;;;;;27.16;38.47;100559.31;5079005;28;747;-41
2021/08/17 00:14:10;;;;;;;;;;;;;;;27.17;38.28;100566.38;5078188;28;1905;-41
2021/08/17 00:16:35;;;;;;;;;;;;;;;27.22;38.83;100563.97;5081236;28;1071;-41
2021/08/17 00:19:01;;;;;;;;;;;;;;;27.17;38.18;100559.13;5099379;28;870;-42
2021/08/17 00:21:26;;;;;;;;;;;;;;;27.13;37.87;100563.22;5098524;28;805;-41
2021/08/17 00:23:51;;;;;;;;;;;;;;;27.07;37.94;100563.97;5099503;28;501;-41
2021/08/17 00:26:16;;;;;;;;;;;;;;;26.92;38.13;100559.41;5098977;28;806;-41
2021/08/17 00:28:42;;;;;;;;;;;;;;;27.08;37.47;100562.94;5098312;28;779;-40
2021/08/17 00:31:07;;;;;;;;;;;;;;;27.08;37.64;100561.09;5098435;28;934;-40
2021/08/17 00:33:32;;;;;;;;;;;;;;;27.08;37.73;100561.09;5098219;28;1946;-41
2021/08/17 00:35:59;;;;;;;;;;;;;;;27.29;37.52;100559.50;5098534;28;790;-41
2021/08/17 00:38:25;;;;;;;;;;;;;;;27.36;37.66;100552.28;5099017;28;743;-41
2021/08/17 00:40:50;;;;;;;;;;;;;;;27.24;37.89;100548.41;5098864;28;776;-42
2021/08/17 00:43:15;;;;;;;;;;;;;;;27.22;37.23;100551.31;5097938;28;811;-42
2021/08/17 00:45:40;;;;;;;;;;;;;;;27.18;37.51;100541.91;5097481;28;1121;-42
2021/08/17 00:48:06;;;;;;;;;;;;;;;27.09;37.60;100543.84;5096984;28;1201;-42
2021/08/17 00:50:32;;;;;;;;;;;;;;;27.03;37.63;100541.91;5098590;28;732;-42
2021/08/17 00:52:58;;;;;;;;;;;;;;;27.01;37.80;100535.81;5098406;28;2016;-42
2021/08/17 00:55:24;;;;;;;;;;;;;;;27.07;38.08;100536.97;5097988;28;871;-41
2021/08/17 00:57:49;;;;;;;;;;;;;;;27.28;37.99;100538.91;5098236;28;790;-42
2021/08/17 01:00:14;;;;;;;;;;;;;;;27.34;38.03;100535.44;5098296;28;805;-42
2021/08/17 01:02:43;;;;;;;;;;;;;;;27.33;38.10;100533.78;5095959;28;1029;-41
2021/08/17 01:05:08;;;;;;;;;;;;;;;27.32;37.63;100526.69;5097966;28;835;-41
2021/08/17 01:07:34;;;;;;;;;;;;;;;27.34;37.53;100534.63;5097962;28;827;-42
2021/08/17 01:09:59;;;;;;;;;;;;;;;27.17;37.74;100524.03;5098304;28;839;-42
2021/08/17 01:12:24;;;;;;;;;;;;;;;27.15;37.80;100536.88;5097714;28;1906;-42
2021/08/17 01:14:50;;;;;;;;;;;;;;;27.04;37.93;100538.22;5097849;28;828;-42
2021/08/17 01:17:15;;;;;;;;;;;;;;;27.24;37.39;100532.22;5096517;28;1005;-42
2021/08/17 01:19:41;;;;;;;;;;;;;;;27.29;37.73;100537.03;5097719;28;759;-42
2021/08/17 01:22:06;;;;;;;;;;;;;;;27.37;37.34;100543.19;5097622;28;863;-42
2021/08/17 01:24:31;;;;;;;;;;;;;;;27.28;37.35;100533.50;5096068;28;1115;-42
2021/08/17 01:26:57;;;;;;;;;;;;;;;27.16;37.66;100535.03;5097644;28;743;-42
2021/08/17 01:29:23;;;;;;;;;;;;;;;27.05;37.62;100530.94;5097702;28;883;-42
2021/08/17 01:31:49;;;;;;;;;;;;;;;27.17;37.15;100532.13;5096677;28;958;-42
2021/08/17 01:34:14;;;;;;;;;;;;;;;27.19;37.51;100526.53;5096776;28;1931;-42
2021/08/17 01:36:39;;;;;;;;;;;;;;;27.19;37.32;100526.53;5097514;28;823;-42
2021/08/17 01:39:05;;;;;;;;;;;;;;;27.24;37.93;100527.63;5097823;28;827;-42
2021/08/17 01:41:30;;;;;;;;;;;;;;;27.39;38.12;100524.91;5097532;28;843;-42
2021/08/17 01:43:55;;;;;;;;;;;;;;;27.32;37.25;100520.47;5097078;28;823;-42
2021/08/17 01:46:21;;;;;;;;;;;;;;;27.28;37.53;100521.88;5096091;28;938;-42
2021/08/17 01:48:46;;;;;;;;;;;;;;;27.22;37.16;100521.59;5097322;28;1048;-42
2021/08/17 01:51:11;;;;;;;;;;;;;;;27.21;37.32;100521.78;5096869;28;780;-42
2021/08/17 01:53:37;;;;;;;;;;;;;;;27.18;37.42;100520.28;5097013;28;1952;-42
2021/08/17 01:56:06;;;;;;;;;;;;;;;27.12;37.62;100515.66;5097262;28;863;-42
2021/08/17 01:58:31;;;;;;;;;;;;;;;27.24;37.72;100516.84;5096572;28;823;-42
2021/08/17 02:00:56;;;;;;;;;;;;;;;27.32;38.05;100521.31;5097226;28;764;-42
2021/08/17 02:03:21;;;;;;;;;;;;;;;27.41;37.80;100515.78;5096058;28;986;-42
2021/08/17 02:05:47;;;;;;;;;;;;;;;27.47;37.83;100517.72;5096613;28;783;-42
2021/08/17 02:08:12;;;;;;;;;;;;;;;27.36;37.31;100514.47;5097243;28;1036;-42
2021/08/17 02:10:37;;;;;;;;;;;;;;;27.31;37.37;100514.22;5097170;28;755;-42
2021/08/17 02:13:03;;;;;;;;;;;;;;;27.19;37.43;100510.34;5095539;28;1898;-42
2021/08/17 02:15:28;;;;;;;;;;;;;;;27.13;37.83;100501.97;5096863;28;763;-42
2021/08/17 02:17:53;;;;;;;;;;;;;;;27.13;37.67;100504.66;5095937;28;1005;-42
2021/08/17 02:20:19;;;;;;;;;;;;;;;27.10;37.55;100509.59;5096303;28;812;-42
2021/08/17 02:22:44;;;;;;;;;;;;;;;27.20;37.89;100501.19;5096761;28;803;-42
2021/08/17 02:25:09;;;;;;;;;;;;;;;27.38;38.08;100509.72;5096500;28;858;-41
2021/08/17 02:27:35;;;;;;;;;;;;;;;27.47;38.20;100505.06;5096332;28;764;-41
2021/08/17 02:30:01;;;;;;;;;;;;;;;27.45;38.12;100503.56;5096861;28;858;-41
2021/08/17 02:32:29;;;;;;;;;;;;;;;27.38;37.51;100500.78;5094561;28;1901;-41
2021/08/17 02:34:54;;;;;;;;;;;;;;;27.25;36.97;100505.03;5096279;28;791;-42
2021/08/17 02:37:19;;;;;;;;;;;;;;;27.10;37.12;100499.66;5096445;28;860;-42
2021/08/17 02:39:45;;;;;;;;;;;;;;;27.05;37.31;100495.84;5096731;28;851;-41
2021/08/17 02:42:10;;;;;;;;;;;;;;;27.17;37.01;100494.34;5096085;28;834;-41
2021/08/17 02:44:35;;;;;;;;;;;;;;;27.07;37.36;100502.72;5096685;28;815;-41
2021/08/17 02:47:00;;;;;;;;;;;;;;;27.09;37.37;100503.34;5095442;28;1013;-40
2021/08/17 02:49:26;;;;;;;;;;;;;;;27.20;37.50;100498.50;5096312;28;1252;-42
2021/08/17 02:51:51;;;;;;;;;;;;;;;27.31;37.76;100500.72;5096258;28;858;-41
2021/08/17 02:54:16;;;;;;;;;;;;;;;27.35;37.73;100501.16;5096121;28;1917;-41
2021/08/17 02:56:42;;;;;;;;;;;;;;;27.44;38.02;100508.16;5096074;28;776;-42
2021/08/17 02:59:07;;;;;;;;;;;;;;;27.32;37.34;100504.25;5096413;28;887;-41
2021/08/17 03:01:32;;;;;;;;;;;;;;;27.20;37.20;100501.19;5095093;28;1025;-42
2021/08/17 03:03:57;;;;;;;;;;;;;;;27.13;37.62;100501.13;5096039;28;837;-42
2021/08/17 03:06:23;;;;;;;;;;;;;;;27.06;37.58;100503.75;5096137;28;908;-42
2021/08/17 03:08:48;;;;;;;;;;;;;;;26.92;37.76;100500.03;5096304;28;808;-42
2021/08/17 03:11:13;;;;;;;;;;;;;;;27.07;37.35;100501.88;5095978;28;871;-42
2021/08/17 03:13:38;;;;;;;;;;;;;;;27.19;37.71;100504.94;5094543;28;1905;-42
2021/08/17 03:16:04;;;;;;;;;;;;;;;27.23;38.14;100506.22;5095479;28;866;-42
2021/08/17 03:18:29;;;;;;;;;;;;;;;27.36;37.77;100509.06;5075856;28;835;-42
2021/08/17 03:20:57;;;;;;;;;;;;;;;27.34;38.43;100510.31;5076118;28;831;-42
2021/08/17 03:23:22;;;;;;;;;;;;;;;27.43;37.85;100511.00;5075881;28;754;-43
2021/08/17 03:25:47;;;;;;;;;;;;;;;26.99;36.90;100505.50;5076967;28;821;-42
2021/08/17 03:28:13;;;;;;;;;;;;;;;27.07;37.28;100510.84;5079795;28;760;-41
2021/08/17 03:30:38;;;;;;;;;;;;;;;27.15;37.76;100520.69;5079204;28;768;-42
2021/08/17 03:33:03;;;;;;;;;;;;;;;27.08;37.65;100517.03;5079187;28;1918;-41
2021/08/17 03:35:29;;;;;;;;;;;;;;;27.09;37.61;100518.75;5079638;28;764;-41
2021/08/17 03:37:54;;;;;;;;;;;;;;;27.21;37.83;100517.22;5079441;28;863;-42
2021/08/17 03:40:20;;;;;;;;;;;;;;;27.28;37.76;100520.00;5078242;28;934;-44
2021/08/17 03:42:46;;;;;;;;;;;;;;;27.36;38.02;100519.88;5079276;28;831;-42
2021/08/17 03:45:12;;;;;;;;;;;;;;;27.43;38.44;100525.34;5078901;28;851;-41
2021/08/17 03:47:38;;;;;;;;;;;;;;;27.24;38.26;100533.03;5079164;28;1335;-42
2021/08/17 03:50:04;;;;;;;;;;;;;;;26.66;39.82;100528.28;5079660;28;803;-47
2021/08/17 03:52:29;;;;;;;;;;;;;;;26.34;40.70;100522.22;5079456;28;1913;-33
2021/08/17 03:54:55;;;;;;;;;;;;;;;26.25;41.26;100516.03;5078531;28;957;-42
2021/08/17 03:57:20;;;;;;;;;;;;;;;25.94;42.83;100525.91;5079357;28;810;-38
2021/08/17 03:59:45;;;;;;;;;;;;;;;26.02;42.53;100520.47;5079442;28;784;-40
2021/08/17 04:02:14;;;;;;;;;;;;;;;26.07;42.10;100519.06;5079361;28;974;-34
2021/08/17 04:04:39;;;;;;;;;;;;;;;26.23;43.18;100515.38;5079500;28;839;-35
2021/08/17 04:07:04;;;;;;;;;;;;;;;26.40;42.93;100513.41;5079056;28;826;-38
2021/08/17 04:09:30;;;;;;;;;;;;;;;26.72;42.64;100514.09;5079161;28;825;-35
2021/08/17 04:11:55;;;;;;;;;;;;;;;26.75;42.43;100508.31;5078752;28;890;-41
2021/08/17 04:14:20;;;;;;;;;;;;;;;26.77;42.18;100505.44;5079195;28;1905;-39
2021/08/17 04:16:46;;;;;;;;;;;;;;;26.46;41.48;100506.44;5079169;28;879;-38
2021/08/17 04:19:11;;;;;;;;;;;;;;;26.36;41.29;100506.72;5078537;28;832;-39
2021/08/17 04:21:36;;;;;;;;;;;;;;;26.73;40.68;100504.94;5079086;28;835;-36
2021/08/17 04:24:02;;;;;;;;;;;;;;;26.64;40.53;100504.19;5078512;28;895;-38
2021/08/17 04:26:27;;;;;;;;;;;;;;;26.51;40.45;100502.16;5078253;28;759;-37
2021/08/17 04:28:52;;;;;;;;;;;;;;;26.67;40.66;100511.09;5078484;28;830;-37
2021/08/17 04:31:18;;;;;;;;;;;;;;;26.87;40.98;100508.69;5079032;28;923;-35
2021/08/17 04:33:44;;;;;;;;;;;;;;;27.09;41.60;100518.75;5077838;28;1898;-35
2021/08/17 04:36:09;;;;;;;;;;;;;;;26.94;40.59;100514.19;5078739;28;870;-39
2021/08/17 04:38:34;;;;;;;;;;;;;;;26.46;40.49;100509.16;5078735;28;846;-39
2021/08/17 04:41:03;;;;;;;;;;;;;;;26.74;40.11;100513.91;5078169;28;732;-36
2021/08/17 04:43:28;;;;;;;;;;;;;;;27.06;39.32;100506.44;5078465;28;750;-37
2021/08/17 04:45:53;;;;;;;;;;;;;;;27.16;39.11;100511.53;5078391;28;748;-40
2021/08/17 04:48:19;;;;;;;;;;;;;;;27.01;39.36;100511.53;5078293;28;1249;-40
2021/08/17 04:50:44;;;;;;;;;;;;;;;27.07;39.72;100509.97;5078476;28;836;-38
2021/08/17 04:53:09;;;;;;;;;;;;;;;27.21;39.99;100509.09;5078130;28;1922;-40
2021/08/17 04:55:35;;;;;;;;;;;;;;;27.39;39.83;100514.09;5078131;28;787;-41
2021/08/17 04:58:00;;;;;;;;;;;;;;;27.36;38.87;100513.66;5078153;28;732;-40
2021/08/17 05:00:26;;;;;;;;;;;;;;;27.35;38.73;100514.66;5077850;28;750;-40
2021/08/17 05:02:51;;;;;;;;;;;;;;;27.33;40.37;100517.56;5092093;28;962;-36
2021/08/17 05:05:16;;;;;;;;;;;;;;;27.36;39.01;100519.06;5098759;28;875;-36
2021/08/17 05:07:42;;;;;;;;;;;;;;;27.30;39.23;100526.06;5097902;28;803;-36
2021/08/17 05:10:08;;;;;;;;;;;;;;;27.28;39.33;100528.09;5098329;28;775;-46
2021/08/17 05:12:34;;;;;;;;;;;;;;;27.33;39.48;100525.66;5098104;28;1909;-36
2021/08/17 05:14:59;;;;;;;;;;;;;;;27.36;41.02;100524.47;5098017;28;739;-35
2021/08/17 05:17:24;;;;;;;;;;;;;;;27.32;39.82;100524.00;5097125;28;1005;-44
2021/08/17 05:19:49;;;;;;;;;;;;;;;27.38;39.56;100517.00;5098082;28;746;-37
2021/08/17 05:22:15;;;;;;;;;;;;;;;27.38;39.48;100520.53;5097792;28;760;-34
2021/08/17 05:24:40;;;;;;;;;;;;;;;27.45;38.79;100522.47;5097166;28;881;-43
2021/08/17 05:27:06;;;;;;;;;;;;;;;27.62;39.80;100521.22;5097704;28;757;-44
2021/08/17 05:29:31;;;;;;;;;;;;;;;27.61;38.52;100522.22;5097754;28;843;-43
2021/08/17 05:31:56;;;;;;;;;;;;;;;27.67;38.30;100517.94;5090267;28;957;-36
2021/08/17 05:34:22;;;;;;;;;;;;;;;27.50;41.54;100512.78;5077098;28;1955;-35
2021/08/17 05:36:47;;;;;;;;;;;;;;;27.49;42.57;100518.38;5077185;28;886;-37
2021/08/17 05:39:12;;;;;;;;;;;;;;;26.93;45.50;100512.47;5076958;28;760;-35
2021/08/17 05:41:37;;;;;;;;;;;;;;;26.97;45.68;100519.19;5077032;28;906;-38
2021/08/17 05:44:03;;;;;;;;;;;;;;;27.63;41.24;100524.72;5076831;28;820;-36
2021/08/17 05:46:28;;;;;;;;;;;;;;;27.55;42.86;100525.69;5077063;28;1002;-43
2021/08/17 05:48:53;;;;;;;;;;;;;;;27.30;45.33;100526.06;5076063;28;1100;-33
2021/08/17 05:51:18;;;;;;;;;;;;;;;27.19;45.49;100531.94;5076834;28;901;-37
2021/08/17 05:53:44;;;;;;;;;;;;;;;27.67;43.64;100528.75;5076663;28;1983;-39
2021/08/17 05:56:09;;;;;;;;;;;;;;;27.59;43.19;100524.28;5076727;28;1464;-37
2021/08/17 05:58:34;;;;;;;;;;;;;;;27.71;43.31;100521.13;5077062;28;771;-35
2021/08/17 06:01:01;;;;;;;;;;;;;;;28.02;43.30;100529.91;5076844;28;762;-41
2021/08/17 06:03:26;;;;;;;;;;;;;;;27.91;43.20;100526.69;5076849;28;1010;-39
2021/08/17 06:05:51;;;;;;;;;;;;;;;27.81;43.96;100534.31;5076622;28;815;-41
2021/08/17 06:08:16;;;;;;;;;;;;;;;27.90;43.59;100527.72;5076444;28;793;-35
2021/08/17 06:10:42;;;;;;;;;;;;;;;28.37;42.15;100527.31;5076741;28;813;-33
2021/08/17 06:13:07;;;;;;;;;;;;;;;28.28;42.30;100521.19;5076760;28;1964;-36
2021/08/17 06:15:32;;;;;;;;;;;;;;;28.24;42.76;100528.84;5076372;28;906;-35
2021/08/17 06:18:02;;;;;;;;;;;;;;;28.01;44.24;100537.19;5076580;28;1005;-37
2021/08/17 06:20:27;;;;;;;;;;;;;;;28.12;44.71;100530.41;5076852;28;809;-37
2021/08/17 06:22:53;;;;;;;;;;;;;;;27.92;43.98;100533.78;5076253;28;820;-39
2021/08/17 06:25:18;;;;;;;;;;;;;;;28.43;42.73;100528.38;5076689;28;791;-34
2021/08/17 06:27:43;;;;;;;;;;;;;;;28.30;44.08;100538.06;5076245;28;825;-37
2021/08/17 06:30:09;;;;;;;;;;;;;;;28.03;44.40;100539.72;5076268;28;791;-37
2021/08/17 06:32:34;;;;;;;;;;;;;;;28.42;43.20;100529.41;5076323;28;1913;-37
2021/08/17 06:34:59;;;;;;;;;;;;;;;28.44;43.80;100533.63;5076387;28;850;-35
2021/08/17 06:37:25;;;;;;;;;;;;;;;28.04;44.72;100534.09;5076753;28;750;-34
2021/08/17 06:39:50;;;;;;;;;;;;;;;27.85;46.29;100535.59;5075951;28;787;-43
2021/08/17 06:42:15;;;;;;;;;;;;;;;27.86;46.21;100534.56;5076162;28;751;-38
2021/08/17 06:44:40;;;;;;;;;;;;;;;28.67;43.25;100526.25;5076309;28;1088;-42
2021/08/17 06:47:06;;;;;;;;;;;;;;;28.81;42.37;100522.56;5075602;28;962;-43
2021/08/17 06:49:31;;;;;;;;;;;;;;;28.81;42.95;100525.28;5076138;28;1315;-44
2021/08/17 06:51:56;;;;;;;;;;;;;;;28.92;42.60;100526.59;5075864;28;891;-42
2021/08/17 06:54:21;;;;;;;;;;;;;;;28.95;42.46;100530.78;5075708;28;1906;-40
2021/08/17 06:56:47;;;;;;;;;;;;;;;28.83;43.23;100525.94;5076267;28;858;-40
2021/08/17 06:59:12;;;;;;;;;;;;;;;29.00;42.70;100524.78;5075977;28;787;-43
2021/08/17 07:01:37;;;;;;;;;;;;;;;29.01;42.69;100526.47;5078638;28;1030;-44
2021/08/17 07:04:03;;;;;;;;;;;;;;;29.01;42.83;100524.56;5080226;28;939;-40
2021/08/17 07:06:28;;;;;;;;;;;;;;;29.22;42.14;100520.09;5080410;28;724;-41
2021/08/17 07:08:55;;;;;;;;;;;;;;;29.20;42.23;100525.72;5079502;28;805;-38
2021/08/17 07:11:20;;;;;;;;;;;;;;;29.25;42.18;100513.41;5080258;28;793;-40
2021/08/17 07:13:45;;;;;;;;;;;;;;;29.14;42.28;100525.69;5079834;28;1901;-39
2021/08/17 07:16:11;;;;;;;;;;;;;;;28.50;44.43;100533.84;5079957;28;1029;-35
2021/08/17 07:18:36;;;;;;;;;;;;;;;29.20;42.21;100525.72;5079833;28;812;-34
2021/08/17 07:21:01;;;;;;;;;;;;;;;29.42;41.56;100530.16;5079498;28;813;-36
2021/08/17 07:23:27;;;;;;;;;;;;;;;29.30;42.11;100532.59;5079655;28;789;-38
2021/08/17 07:25:52;;;;;;;;;;;;;;;29.31;41.90;100521.56;5096092;28;1045;-35
2021/08/17 07:28:19;;;;;;;;;;;;;;;29.20;42.07;100517.59;5099840;28;741;-40
2021/08/17 07:30:44;;;;;;;;;;;;;;;29.43;41.81;100529.94;5099237;28;807;-37
2021/08/17 07:33:09;;;;;;;;;;;;;;;29.32;41.94;100527.81;5098867;28;1909;-38
2021/08/17 07:35:35;;;;;;;;;;;;;;;29.19;42.21;100534.03;5100243;28;836;-37
2021/08/17 07:38:01;;;;;;;;;;;;;;;29.32;42.20;100520.53;5099406;28;820;-39
2021/08/17 07:40:26;;;;;;;;;;;;;;;29.42;41.90;100520.16;5099762;28;808;-39
2021/08/17 07:42:51;;;;;;;;;;;;;;;29.42;41.64;100522.88;5099674;28;1052;-46
2021/08/17 07:45:17;;;;;;;;;;;;;;;29.41;41.79;100515.75;5099681;28;791;-39
2021/08/17 07:47:42;;;;;;;;;;;;;;;29.23;42.16;100519.03;5098064;28;1246;-38
2021/08/17 07:50:08;;;;;;;;;;;;;;;29.50;41.69;100519.13;5096519;28;1305;-41
2021/08/17 07:52:35;;;;;;;;;;;;;;;29.44;41.78;100511.81;5099255;28;1902;-39
2021/08/17 07:55:04;;;;;;;;;;;;;;;29.57;41.51;100513.72;5099591;28;827;-38
2021/08/17 07:57:29;;;;;;;;;;;;;;;29.43;42.28;100513.69;5099617;28;794;-35
2021/08/17 07:59:55;;;;;;;;;;;;;;;29.41;42.23;100515.75;5098910;28;852;-35
2021/08/17 08:02:20;;;;;;;;;;;;;;;29.61;41.68;100512.31;5098907;28;1002;-38
2021/08/17 08:04:45;;;;;;;;;;;;;;;29.58;41.69;100505.38;5099571;28;813;-37
2021/08/17 08:07:11;;;;;;;;;;;;;;;29.58;41.84;100515.38;5099429;28;976;-41
2021/08/17 08:09:36;;;;;;;;;;;;;;;29.60;42.17;100504.34;5099347;28;759;-40
2021/08/17 08:12:01;;;;;;;;;;;;;;;29.42;42.51;100514.72;5098570;28;854;-37
2021/08/17 08:14:26;;;;;;;;;;;;;;;29.36;42.77;100512.00;5099246;28;1972;-43
2021/08/17 08:16:54;;;;;;;;;;;;;;;29.57;41.92;100500.16;5098045;28;946;-36
2021/08/17 08:19:19;;;;;;;;;;;;;;;29.58;42.20;100507.25;5099051;28;803;-35
2021/08/17 08:21:45;;;;;;;;;;;;;;;29.18;42.79;100514.22;5098731;28;780;-36
2021/08/17 08:24:10;;;;;;;;;;;;;;;29.52;42.39;100517.03;5098732;28;755;-40
2021/08/17 08:26:35;;;;;;;;;;;;;;;29.54;42.04;100514.13;5098873;28;886;-43
2021/08/17 08:29:01;;;;;;;;;;;;;;;29.60;42.15;100507.06;5098983;28;783;-40
2021/08/17 08:31:26;;;;;;;;;;;;;;;29.66;42.15;100512.50;5097763;28;934;-42
2021/08/17 08:33:51;;;;;;;;;;;;;;;29.63;42.40;100510.19;5098788;28;1976;-35
2021/08/17 08:36:16;;;;;;;;;;;;;;;29.54;42.60;100509.56;5098624;28;759;-38
2021/08/17 08:38:42;;;;;;;;;;;;;;;29.41;42.81;100517.66;5096872;28;1119;-36
2021/08/17 08:41:07;;;;;;;;;;;;;;;29.48;42.94;100510.34;5098632;28;865;-39
2021/08/17 08:43:32;;;;;;;;;;;;;;;29.55;42.47;100513.06;5098673;28;757;-37
2021/08/17 08:45:58;;;;;;;;;;;;;;;29.41;43.20;100518.47;5096650;28;789;-36
2021/08/17 08:48:23;;;;;;;;;;;;;;;29.48;42.96;100514.97;5097822;28;1196;-35
2021/08/17 08:50:49;;;;;;;;;;;;;;;29.69;42.25;100516.69;5097985;28;774;-35
2021/08/17 08:53:16;;;;;;;;;;;;;;;29.57;42.62;100505.59;5098220;28;1914;-35
2021/08/17 08:55:43;;;;;;;;;;;;;;;29.50;42.95;100512.84;5098225;28;851;-35
2021/08/17 08:58:08;;;;;;;;;;;;;;;29.69;42.64;100527.53;5098749;28;795;-34
2021/08/17 09:00:33;;;;;;;;;;;;;;;29.80;42.35;100518.78;5097813;28;748;-36
2021/08/17 09:02:59;;;;;;;;;;;;;;;29.69;42.27;100514.81;5097334;28;1021;-37
2021/08/17 09:05:24;;;;;;;;;;;;;;;29.54;42.85;100517.69;5098059;28;791;-36
2021/08/17 09:07:50;;;;;;;;;;;;;;;29.64;42.60;100519.19;5097454;28;803;-35
2021/08/17 09:10:15;;;;;;;;;;;;;;;29.68;42.22;100520.41;5098164;28;810;-36
2021/08/17 09:12:41;;;;;;;;;;;;;;;29.79;42.39;100519.84;5097943;28;1902;-35
2021/08/17 09:15:07;;;;;;;;;;;;;;;29.66;42.46;100507.06;5097837;28;735;-35
2021/08/17 09:17:33;;;;;;;;;;;;;;;29.75;42.45;100515.84;5096921;28;933;-34
2021/08/17 09:19:58;;;;;;;;;;;;;;;29.63;42.51;100521.03;5097767;28;878;-36
2021/08/17 09:22:24;;;;;;;;;;;;;;;29.35;42.70;100516.56;5097436;28;814;-36
2021/08/17 09:24:53;;;;;;;;;;;;;;;29.60;43.12;100521.47;5097265;28;831;-36
2021/08/17 09:27:29;;;;;;;;;;;;;;;29.84;42.27;100515.66;5097830;28;815;-38
2021/08/17 09:30:05;;;;;;;;;;;;;;;29.74;42.28;100516.06;5096959;28;929;-38
2021/08/17 09:32:30;;;;;;;;;;;;;;;29.61;42.11;100520.44;5096917;28;1977;-37
2021/08/17 09:34:57;;;;;;;;;;;;;;;29.67;41.73;100516.06;5097945;28;811;-39
2021/08/17 09:37:29;;;;;;;;;;;;;;;29.61;41.78;100509.59;5096481;28;1190;-37
2021/08/17 09:39:54;;;;;;;;;;;;;;;29.73;41.22;100508.97;5097705;28;843;-37
2021/08/17 09:42:23;;;;;;;;;;;;;;;29.69;41.50;100501.28;5096698;28;833;-38
2021/08/17 09:45:02;;;;;;;;;;;;;;;29.65;40.96;100504.56;5097218;28;757;-37
2021/08/17 09:47:27;;;;;;;;;;;;;;;29.53;41.50;100505.16;5085796;28;950;-39
2021/08/17 09:49:53;;;;;;;;;;;;;;;29.69;41.21;100505.84;5076852;28;1273;-37
2021/08/17 09:52:18;;;;;;;;;;;;;;;29.69;40.79;100497.72;5076912;28;882;-40
2021/08/17 09:54:44;;;;;;;;;;;;;;;29.82;40.71;100495.00;5075179;28;1917;-37
2021/08/17 09:57:09;;;;;;;;;;;;;;;29.73;40.72;100495.44;5076832;28;1071;-37
2021/08/17 09:59:36;;;;;;;;;;;;;;;29.70;41.01;100494.78;5076670;28;1368;-36
2021/08/17 10:02:01;;;;;;;;;;;;;;;29.62;41.41;100500.41;5076749;28;955;-40
2021/08/17 10:04:26;;;;;;;;;;;;;;;29.67;40.67;100503.34;5076736;28;730;-36
2021/08/17 10:06:54;;;;;;;;;;;;;;;29.68;41.20;100493.31;5076526;28;837;-38
2021/08/17 10:09:19;;;;;;;;;;;;;;;29.62;40.97;100505.84;5076945;28;756;-40
2021/08/17 10:11:44;;;;;;;;;;;;;;;29.79;40.92;100495.44;5083338;28;1045;-39
2021/08/17 10:14:10;;;;;;;;;;;;;;;25.90;48.73;100493.09;5085403;28;1905;-44
2021/08/17 10:16:35;;;;;;;;;;;;;;;22.75;50.00;100487.91;5095728;28;1186;-35
2021/08/17 10:19:00;;;;;;;;;;;;;;;21.88;51.39;100484.94;5095490;28;752;-40
2021/08/17 10:21:26;;;;;;;;;;;;;;;22.14;52.69;100485.97;5094845;28;878;-36
2021/08/17 10:23:51;;;;;;;;;;;;;;;22.24;54.92;100484.03;5096783;28;958;-36
2021/08/17 10:26:26;;;;;;;;;;;;;;;22.16;55.91;100485.81;5096566;28;542;-36
2021/08/17 10:28:51;;;;;;;;;;;;;;;22.01;56.98;100487.22;5096504;28;874;-39
2021/08/17 10:31:18;;;;;;;;;;;;;;;21.98;58.12;100484.88;5095915;28;977;-38
2021/08/17 10:33:46;;;;;;;;;;;;;;;22.01;58.56;100478.34;5095796;28;1913;-37
2021/08/17 10:36:27;;;;;;;;;;;;;;;22.12;58.54;100486.13;5095950;28;830;-34
2021/08/17 10:38:52;;;;;;;;;;;;;;;21.94;59.57;100475.44;5096149;28;826;-38
2021/08/17 10:41:23;;;;;;;;;;;;;;;21.89;59.96;100480.41;5096765;28;782;-38
2021/08/17 10:43:49;;;;;;;;;;;;;;;21.93;60.24;100479.13;5096177;28;913;-38
2021/08/17 10:46:16;;;;;;;;;;;;;;;21.83;60.66;100467.66;5095385;28;963;-39
2021/08/17 10:51:19;;;;;;;;;;;;;;;23.34;60.15;100481.75;5096645;28;776;-41
2021/08/17 10:53:48;;;;;;;;;;;;;;;26.00;49.21;100473.97;5096187;28;1913;-36
2021/08/17 10:56:20;;;;;;;;;;;;;;;22.49;57.69;100465.44;5096294;28;871;-36
2021/08/17 10:58:49;;;;;;;;;;;;;;;22.06;58.96;100472.50;5095614;28;858;-38
2021/08/17 11:01:33;;;;;;;;;;;;;;;21.89;60.22;100477.75;5095200;28;977;-37
2021/08/17 11:03:59;;;;;;;;;;;;;;;21.89;60.60;100467.88;5096228;28;752;-37
2021/08/17 11:06:34;;;;;;;;;;;;;;;21.89;60.85;100465.19;5096409;28;824;-38
2021/08/17 11:08:59;;;;;;;;;;;;;;;21.89;61.01;100461.66;5096477;28;751;-38
2021/08/17 11:11:24;;;;;;;;;;;;;;;21.99;60.90;100464.25;5095931;28;756;-38
2021/08/17 11:14:08;;;;;;;;;;;;;;;24.82;53.44;100462.19;5095999;28;1960;-37
2021/08/17 11:16:34;;;;;;;;;;;;;;;23.27;56.08;100456.59;5095630;28;1001;-39
2021/08/17 11:19:01;;;;;;;;;;;;;;;22.14;59.05;100468.06;5094750;28;1409;-37
2021/08/17 11:21:30;;;;;;;;;;;;;;;21.89;60.29;100453.63;5096390;28;817;-38
2021/08/17 11:24:05;;;;;;;;;;;;;;;21.87;60.54;100459.16;5095595;28;925;-38
2021/08/17 11:26:31;;;;;;;;;;;;;;;21.89;60.71;100451.81;5096308;28;866;-37
2021/08/17 11:28:56;;;;;;;;;;;;;;;21.73;61.37;100449.81;5095707;28;747;-36
2021/08/17 11:31:21;;;;;;;;;;;;;;;21.68;61.65;100446.75;5095265;28;969;-37
2021/08/17 11:33:46;;;;;;;;;;;;;;;24.57;53.92;100456.09;5095786;28;1905;-36
2021/08/17 11:36:24;;;;;;;;;;;;;;;23.56;54.83;100447.25;5096048;28;760;-43
2021/08/17 11:38:49;;;;;;;;;;;;;;;21.96;58.64;100451.19;5095996;28;772;-40
2021/08/17 11:41:29;;;;;;;;;;;;;;;21.58;59.19;100441.47;5095783;28;847;-39
2021/08/17 11:44:13;;;;;;;;;;;;;;;21.66;60.33;100440.69;5095882;28;807;-43
2021/08/17 11:46:39;;;;;;;;;;;;;;;21.61;60.93;100437.66;5096204;28;958;-44
2021/08/17 11:49:39;;;;;;;;;;;;;;;21.68;61.07;100449.44;5099063;28;1308;-42
2021/08/17 11:52:11;;;;;;;;;;;;;;;21.68;61.64;100438.72;5017656;28;1284;-41
2021/08/17 11:54:40;;;;;;;;;;;;;;;21.91;61.75;100440.94;5086197;28;1910;-40
2021/08/17 11:57:06;;;;;;;;;;;;;;;24.71;53.61;100430.31;5099232;28;755;-40
2021/08/17 11:59:38;;;;;;;;;;;;;;;23.04;56.68;100433.03;5099668;28;837;-40
2021/08/17 12:02:03;;;;;;;;;;;;;;;21.93;59.96;100432.75;5091353;28;1028;-42
2021/08/17 12:04:28;;;;;;;;;;;;;;;21.64;61.02;100421.28;5078493;28;834;-36
2021/08/17 12:07:06;;;;;;;;;;;;;;;21.70;61.29;100426.03;5079068;28;1025;-38
2021/08/17 12:09:34;;;;;;;;;;;;;;;24.67;53.65;100420.94;5079507;28;771;-39
2021/08/17 12:11:59;;;;;;;;;;;;;;;23.10;57.46;100426.19;5077380;28;834;-39
2021/08/17 12:14:24;;;;;;;;;;;;;;;22.23;61.28;100414.53;5078970;28;1902;-39
2021/08/17 12:16:53;;;;;;;;;;;;;;;25.06;52.95;100412.00;5078424;28;927;-38
2021/08/17 12:19:18;;;;;;;;;;;;;;;23.38;57.39;100412.47;5078520;28;760;-42
2021/08/17 12:21:44;;;;;;;;;;;;;;;22.38;60.51;100414.78;5077595;28;1113;-40
2021/08/17 12:24:09;;;;;;;;;;;;;;;23.06;61.52;100400.66;5078683;28;1108;-40
2021/08/17 12:26:34;;;;;;;;;;;;;;;25.74;51.66;100402.44;5078686;28;720;-37
2021/08/17 12:29:10;;;;;;;;;;;;;;;23.19;58.58;100402.91;5078582;28;748;-37
2021/08/17 12:31:37;;;;;;;;;;;;;;;22.21;61.33;100403.97;5078422;28;1083;-45
2021/08/17 12:34:05;;;;;;;;;;;;;;;22.89;63.34;100391.75;5092613;28;1930;-36
2021/08/17 12:36:57;;;;;;;;;;;;;;;25.72;51.93;100400.97;5078713;28;1315;-36
2021/08/17 12:39:24;;;;;;;;;;;;;;;22.81;59.59;100395.22;5078524;28;874;-42
2021/08/17 12:41:50;;;;;;;;;;;;;;;22.19;61.42;100395.25;5077880;28;737;-39
2021/08/17 12:44:15;;;;;;;;;;;;;;;21.84;62.42;100387.16;5078415;28;828;-44
2021/08/17 12:47:00;;;;;;;;;;;;;;;24.75;55.48;100377.84;5078163;28;1026;-42
2021/08/17 12:49:35;;;;;;;;;;;;;;;23.25;57.68;100380.75;5077968;28;1085;-38
2021/08/17 12:52:27;;;;;;;;;;;;;;;22.13;61.23;100377.16;5078356;28;824;-37
2021/08/17 12:54:56;;;;;;;;;;;;;;;21.96;61.99;100377.03;5053826;28;1910;-37